Map

Track Data

SID SEASON NUMBER BASIN SUBBASIN NAME ISO_TIME NATURE LAT LON WMO_WIND WMO_PRES WMO_AGENCY TRACK_TYPE DIST2LAND LANDFALL IFLAG USA_AGENCY USA_ATCF_ID USA_LAT USA_LON USA_RECORD USA_STATUS USA_WIND USA_PRES USA_SSHS USA_R34_NE USA_R34_SE USA_R34_SW USA_R34_NW USA_R50_NE USA_R50_SE USA_R50_SW USA_R50_NW USA_R64_NE USA_R64_SE USA_R64_SW USA_R64_NW USA_POCI USA_ROCI USA_RMW USA_EYE TOKYO_LAT TOKYO_LON TOKYO_GRADE TOKYO_WIND TOKYO_PRES TOKYO_R50_DIR TOKYO_R50_LONG TOKYO_R50_SHORT TOKYO_R30_DIR TOKYO_R30_LONG TOKYO_R30_SHORT TOKYO_LAND CMA_LAT CMA_LON CMA_CAT CMA_WIND CMA_PRES HKO_LAT HKO_LON HKO_CAT HKO_WIND HKO_PRES NEWDELHI_LAT NEWDELHI_LON NEWDELHI_GRADE NEWDELHI_WIND NEWDELHI_PRES NEWDELHI_CI NEWDELHI_DP NEWDELHI_POCI REUNION_LAT REUNION_LON REUNION_TYPE REUNION_WIND REUNION_PRES REUNION_TNUM REUNION_CI REUNION_RMW REUNION_R34_NE REUNION_R34_SE REUNION_R34_SW REUNION_R34_NW REUNION_R50_NE REUNION_R50_SE REUNION_R50_SW REUNION_R50_NW REUNION_R64_NE REUNION_R64_SE REUNION_R64_SW REUNION_R64_NW BOM_LAT BOM_LON BOM_TYPE BOM_WIND BOM_PRES BOM_TNUM BOM_CI BOM_RMW BOM_R34_NE BOM_R34_SE BOM_R34_SW BOM_R34_NW BOM_R50_NE BOM_R50_SE BOM_R50_SW BOM_R50_NW BOM_R64_NE BOM_R64_SE BOM_R64_SW BOM_R64_NW BOM_ROCI BOM_POCI BOM_EYE BOM_POS_METHOD BOM_PRES_METHOD NADI_LAT NADI_LON NADI_CAT NADI_WIND NADI_PRES WELLINGTON_LAT WELLINGTON_LON WELLINGTON_WIND WELLINGTON_PRES DS824_LAT DS824_LON DS824_STAGE DS824_WIND DS824_PRES TD9636_LAT TD9636_LON TD9636_STAGE TD9636_WIND TD9636_PRES TD9635_LAT TD9635_LON TD9635_WIND TD9635_PRES TD9635_ROCI NEUMANN_LAT NEUMANN_LON NEUMANN_CLASS NEUMANN_WIND NEUMANN_PRES MLC_LAT MLC_LON MLC_CLASS MLC_WIND MLC_PRES USA_GUST BOM_GUST BOM_GUST_PER REUNION_GUST REUNION_GUST_PER USA_SEAHGT USA_SEARAD_NE USA_SEARAD_SE USA_SEARAD_SW USA_SEARAD_NW STORM_SPEED STORM_DIR
1993034S14191 1993 10 SP MM MICK 1993-02-03 00:00:00 TS -13.8000 190.800 main 324 302 O___________O_ jtwc_sh SH171993 -13.8000 -169.200 25 -1 -13.8000 -169.200 TC 25 5 261
1993034S14191 1993 10 SP MM MICK 1993-02-03 03:00:00 TS -13.8400 190.552 main 302 270 P___________P_ SH171993 -13.8400 -169.448 22 -1 -13.8400 -169.448 TC 22 5 258
1993034S14191 1993 10 SP MM MICK 1993-02-03 06:00:00 TS -13.9000 190.300 main 270 249 O___________O_ jtwc_sh SH171993 -13.9000 -169.700 20 -1 -13.9000 -169.700 TC 20 5 253
1993034S14191 1993 10 SP MM MICK 1993-02-03 09:00:00 TS -13.9925 190.043 main 238 218 P___________P_ SH171993 -13.9925 -169.957 20 -1 -13.9925 -169.957 TC 20 5 248
1993034S14191 1993 10 SP MM MICK 1993-02-03 12:00:00 TS -14.1000 189.800 main 218 199 O___________O_ jtwc_sh SH171993 -14.1000 -170.200 20 -1 -14.1000 -170.200 TC 20 5 245
1993034S14191 1993 10 SP MM MICK 1993-02-03 15:00:00 TS -14.2000 189.585 main 199 181 P___________P_ SH171993 -14.2000 -170.415 22 -1 -14.2000 -170.415 TC 22 4 243
1993034S14191 1993 10 SP MM MICK 1993-02-03 18:00:00 TS -14.3000 189.400 main 181 171 O___________O_ jtwc_sh SH171993 -14.3000 -170.600 25 -1 -14.3000 -170.600 TC 25 4 238
1993034S14191 1993 10 SP MM MICK 1993-02-03 21:00:00 TS -14.4000 189.250 main 165 160 P___________P_ SH171993 -14.4000 -170.750 25 -1 -14.4000 -170.750 TC 25 4 236
1993034S14191 1993 10 SP MM MICK 1993-02-04 00:00:00 TS -14.5000 189.100 main 160 148 O___________O_ jtwc_sh SH171993 -14.5000 -170.900 25 -1 -14.5000 -170.900 TC 25 4 240
1993034S14191 1993 10 SP MM MICK 1993-02-04 03:00:00 TS -14.5925 188.907 main 148 139 P___________P_ SH171993 -14.5925 -171.093 25 -1 -14.5925 -171.093 TC 25 4 243
1993034S14191 1993 10 SP MM MICK 1993-02-04 06:00:00 TS -14.7000 188.700 main 139 132 O___________O_ jtwc_sh SH171993 -14.7000 -171.300 25 -1 -14.7000 -171.300 TC 25 5 238
1993034S14191 1993 10 SP MM MICK 1993-02-04 09:00:00 TS -14.8425 188.500 main 135 135 P___________P_ SH171993 -14.8425 -171.500 25 -1 -14.8425 -171.500 TC 25 5 232
1993034S14191 1993 10 SP MM MICK 1993-02-04 12:00:00 TS -15.0000 188.300 main 144 141 O___________O_ jtwc_sh SH171993 -15.0000 -171.700 25 -1 -15.0000 -171.700 TC 25 5 233
1993034S14191 1993 10 SP MM MICK 1993-02-04 15:00:00 TS -15.1425 188.092 main 149 149 P___________P_ SH171993 -15.1425 -171.908 25 -1 -15.1425 -171.908 TC 25 5 232
1993034S14191 1993 10 SP MM MICK 1993-02-04 18:00:00 TS -15.3000 187.900 main 168 168 O___________O_ jtwc_sh SH171993 -15.3000 -172.100 25 -1 -15.3000 -172.100 TC 25 5 225
1993034S14191 1993 10 SP MM MICK 1993-02-04 21:00:00 TS -15.4925 187.728 main 190 190 P___________P_ SH171993 -15.4925 -172.272 25 -1 -15.4925 -172.272 TC 25 5 216
1993034S14191 1993 10 SP MM MICK 1993-02-05 00:00:00 TS -15.7000 187.600 main 212 212 O___________O_ jtwc_sh SH171993 -15.7000 -172.400 25 -1 -15.7000 -172.400 TC 25 4 205
1993034S14191 1993 10 SP MM MICK 1993-02-05 03:00:00 TS -15.8925 187.535 main 235 235 P___________P_ SH171993 -15.8925 -172.465 25 -1 -15.8925 -172.465 TC 25 4 208
1993034S14191 1993 10 SP MM MICK 1993-02-05 06:00:00 TS -16.0889 187.389 main 257 257 O_______O___O_ jtwc_sh SH171993 -16.1000 -172.500 25 -1 -16.0000 -173.500 30 997 -16.1000 -172.500 TC 25 5 207
1993034S14191 1993 10 SP MM MICK 1993-02-05 09:00:00 TS -16.3270 187.304 main 280 280 P_______P___P_ SH171993 -16.3425 -172.557 27 -1 -16.2651 -173.248 30 997 -16.3425 -172.557 TC 27 5 192
1993034S14191 1993 10 SP MM MICK 1993-02-05 12:00:00 TS -16.5727 187.291 main 313 313 O_______O___O_ jtwc_sh SH171993 -16.6000 -172.600 30 -1 -16.5000 -173.000 30 997 -16.6000 -172.600 TC 30 5 174
1993034S14191 1993 10 SP MM MICK 1993-02-05 15:00:00 TS -16.7875 187.358 main 335 335 P_______P___P_ SH171993 -16.8350 -172.578 30 -1 -16.6925 -172.770 30 997 -16.8350 -172.578 TC 30 5 167
1993034S14191 1993 10 SP MM MICK 1993-02-05 18:00:00 TS -17.0333 187.400 main 358 358 O_______O___O_ jtwc_sh SH171993 -17.1000 -172.600 30 -1 -16.9000 -172.600 30 997 -17.1000 -172.600 TC 30 6 182
1993034S14191 1993 10 SP MM MICK 1993-02-05 21:00:00 TS -17.3591 187.348 main 403 403 P_______P___P_ SH171993 -17.4500 -172.747 30 -1 -17.1773 -172.460 30 997 -17.4500 -172.747 TC 30 7 199
1993034S14191 1993 10 SP MM MICK 1993-02-06 00:00:00 TS -17.7000 187.167 main 437 437 O_______O___O_ jtwc_sh SH171993 -17.8000 -173.000 30 -1 -17.5000 -172.500 30 997 -17.8000 -173.000 TC 30 8 216
1993034S14191 1993 10 SP MM MICK 1993-02-06 03:00:00 TS -18.0158 186.850 main 473 473 P_______P___P_ SH171993 -18.0874 -173.312 32 -1 -17.8726 -172.825 35 993 -18.0874 -173.312 TC 32 9 231
1993034S14191 1993 10 SP MM MICK 1993-02-06 06:00:00 TS -18.2667 186.433 main 514 514 O_______O___O_ jtwc_sh SH171993 -18.3000 -173.700 35 0 -18.2000 -173.300 40 990 -18.3000 -173.700 TC 35 9 245
1993034S14191 1993 10 SP MM MICK 1993-02-06 09:00:00 TS -18.4033 185.993 main 536 536 P_______P___P_ SH171993 -18.4225 -174.135 35 0 -18.3650 -173.750 40 990 -18.4225 -174.135 TC 35 9 255
1993034S14191 1993 10 SP MM MICK 1993-02-06 12:00:00 TS -18.5000 185.533 main 563 563 O_______O___O_ jtwc_sh SH171993 -18.5000 -174.600 35 0 -18.5000 -174.200 40 990 -18.5000 -174.600 TC 35 9 254
1993034S14191 1993 10 SP MM MICK 1993-02-06 15:00:00 TS -18.6498 185.102 main 586 555 P_______P___P_ SH171993 -18.5999 -175.050 35 0 -18.7498 -174.592 42 988 -18.5999 -175.050 TC 35 9 250
1993034S14191 1993 10 SP MM MICK 1993-02-06 18:00:00 TS -18.8000 184.667 main 555 512 O_______O___O_ jtwc_sh SH171993 -18.7000 -175.500 35 0 -19.0000 -175.000 45 987 -18.7000 -175.500 TC 35 9 253
1993034S14191 1993 10 SP MM MICK 1993-02-06 21:00:00 TS -18.9166 184.200 main 512 480 P_______P___P_ SH171993 -18.7924 -175.958 37 0 -19.1650 -175.485 45 987 -18.7924 -175.958 TC 37 9 255
1993034S14191 1993 10 SP MM MICK 1993-02-07 00:00:00 TS -19.0333 183.733 main 471 448 O_______O___O_ jtwc_sh SH171993 -18.9000 -176.400 40 0 -19.3000 -176.000 45 987 -18.9000 -176.400 TC 40 9 254
1993034S14191 1993 10 SP MM MICK 1993-02-07 03:00:00 TS -19.1707 183.290 main 448 422 P_______P___P_ SH171993 -19.0274 -176.815 42 0 -19.4574 -176.500 45 987 -19.0274 -176.815 TC 42 9 250
1993034S14191 1993 10 SP MM MICK 1993-02-07 06:00:00 TS -19.3333 182.867 main 422 407 O_______O___O_ jtwc_sh SH171993 -19.2000 -177.200 45 0 -19.6000 -177.000 45 987 -19.2000 -177.200 TC 45 9 248
1993034S14191 1993 10 SP MM MICK 1993-02-07 09:00:00 TS -19.4958 182.451 main 408 396 P_______P___P_ SH171993 -19.4124 -177.565 45 0 -19.6625 -177.515 45 987 -19.4124 -177.565 TC 45 9 242
1993034S14191 1993 10 SP MM MICK 1993-02-07 12:00:00 TS -19.7333 182.067 main 399 383 O_______O___O_ jtwc_sh SH171993 -19.7000 -177.900 45 0 -19.8000 -178.000 45 987 -19.7000 -177.900 TC 45 9 229
1993034S14191 1993 10 SP MM MICK 1993-02-07 15:00:00 TS -20.0983 181.711 main 386 383 P_______P___P_ SH171993 -20.0699 -178.215 45 0 -20.1549 -178.437 45 987 -20.0699 -178.215 TC 45 10 218
1993034S14191 1993 10 SP MM MICK 1993-02-07 18:00:00 TS -20.5333 181.400 main 390 390 O_______O___O_ jtwc_sh SH171993 -20.5000 -178.500 45 0 -20.6000 -178.800 45 987 -20.5000 -178.500 TC 45 10 212
1993034S14191 1993 10 SP MM MICK 1993-02-07 21:00:00 TS -20.9616 181.137 main 410 410 P_______P___P_ SH171993 -20.9424 -178.750 45 0 -20.9999 -179.088 42 988 -20.9424 -178.750 TC 45 10 208
1993034S14191 1993 10 SP MM MICK 1993-02-08 00:00:00 TS -21.4000 180.900 main 435 435 O_______O___O_ jtwc_sh SH171993 -21.4000 -179.000 45 0 -21.4000 -179.300 40 990 -21.4000 -179.000 TC 45 10 208
1993034S14191 1993 10 SP MM MICK 1993-02-08 03:00:00 TS -21.8283 180.650 main 458 458 P_______P___P_ SH171993 -21.8500 -179.300 45 0 -21.7849 -179.450 40 990 -21.8500 -179.300 TC 45 10 208
1993034S14191 1993 10 SP MM MICK 1993-02-08 06:00:00 TS -22.2667 180.400 main 502 502 O_______O___O_ jtwc_sh SH171993 -22.3000 -179.600 45 0 -22.2000 -179.600 40 990 -22.3000 -179.600 TC 45 10 207
1993034S14191 1993 10 SP MM MICK 1993-02-08 09:00:00 TS -22.7333 180.152 main 534 534 P_______P___P_ SH171993 -22.7574 -179.858 42 0 -22.6850 -179.828 40 990 -22.7574 -179.858 TC 42 10 206
1993034S14191 1993 10 SP MM MICK 1993-02-08 12:00:00 TS -23.2000 179.900 main 575 575 O_______O___O_ jtwc_sh SH171993 -23.2000 179.900 40 0 -23.2000 179.900 40 990 -23.2000 179.900 TC 40 10 208
1993034S14191 1993 10 SP MM MICK 1993-02-08 15:00:00 TS -23.6408 179.631 main 610 610 P_______P___P_ SH171993 -23.6150 179.642 40 0 -23.6925 179.607 40 990 -23.6150 179.642 TC 40 10 209
1993034S14191 1993 10 SP MM MICK 1993-02-08 18:00:00 TS -24.0667 179.367 main 660 658 O_______O___O_ jtwc_sh SH171993 -24.0000 179.400 40 0 -24.2000 179.300 40 990 -24.0000 179.400 TC 40 10 209
1993034S14191 1993 10 SP MM MICK 1993-02-08 21:00:00 TS -24.4833 179.118 main 699 699 P_______P___P_ SH171993 -24.3574 179.192 40 0 -24.7351 178.970 40 990 -24.3574 179.192 TC 40 9 207
1993034S14191 1993 10 SP MM MICK 1993-02-09 00:00:00 TS -24.9000 178.900 40 990 wellington main 741 741 O_______O___O_ jtwc_sh SH171993 -24.7000 179.000 40 0 -25.3000 178.700 40 990 -24.7000 179.000 TC 40 9 203
1993034S14191 1993 10 SP MM MICK 1993-02-09 03:00:00 TS -25.3308 178.713 main 784 784 P_______P___P_ SH171993 -25.0425 178.792 37 0 -25.9074 178.555 37 992 -25.0425 178.792 TC 37 10 198
1993034S14191 1993 10 SP MM MICK 1993-02-09 06:00:00 TS -25.8400 178.560 35 995 wellington main 839 839 O_______O___O_ jtwc_sh SH171993 -25.4000 178.600 35 0 -26.5000 178.500 35 995 -25.4000 178.600 TC 35 11 192
1993034S14191 1993 10 SP MM MICK 1993-02-09 09:00:00 TS -26.4025 178.462 main 906 906 P_______P___P_ SH171993 -25.7900 178.440 35 0 -27.0150 178.485 32 996 -25.7900 178.440 TC 35 12 185
1993034S14191 1993 10 SP MM MICK 1993-02-09 12:00:00 TS -27.0667 178.433 30 997 wellington main 972 902 O_______O___O_ jtwc_sh SH171993 -26.2000 178.300 35 0 -27.5000 178.500 30 997 -26.2000 178.300 TC 35 15 178
1993034S14191 1993 10 SP MM MICK 1993-02-09 15:00:00 NR -27.9250 178.500 main 902 847 ________P_____ SH171993 -1 -27.9250 178.500 30 997 TC 14 178
1993034S14191 1993 10 SP MM MICK 1993-02-09 18:00:00 NR -28.5000 178.500 30 997 wellington main 847 753 ________O_____ -1 -28.5000 178.500 30 997 16 179
1993034S14191 1993 10 SP MM MICK 1993-02-09 21:00:00 NR -29.5524 178.537 main 744 662 ________P_____ -1 -29.5524 178.537 30 997 20 0
1993034S14191 1993 10 SP MM MICK 1993-02-10 00:00:00 NR -30.5000 178.500 30 997 wellington main 662 633 ________O_____ -1 -30.5000 178.500 30 997 12 192
1993034S14191 1993 10 SP MM MICK 1993-02-10 03:00:00 NR -30.7102 178.257 main 633 607 ________P_____ -1 -30.7102 178.257 30 997 5 235
1993034S14191 1993 10 SP MM MICK 1993-02-10 06:00:00 NR -30.8000 178.000 30 997 wellington main 607 557 ________O_____ -1 -30.8000 178.000 30 997 7 206
1993034S14191 1993 10 SP MM MICK 1993-02-10 09:00:00 NR -31.3241 177.915 main 557 495 ________P_____ -1 -31.3241 177.915 30 997 12 184
1993034S14191 1993 10 SP MM MICK 1993-02-10 12:00:00 NR -32.0000 177.900 30 997 wellington main 495 440 ________O_____ -1 -32.0000 177.900 30 997 13 183
1993034S14191 1993 10 SP MM MICK 1993-02-10 15:00:00 NR -32.6491 177.822 main 440 389 ________P_____ -1 -32.6491 177.822 30 997 13 185
1993034S14191 1993 10 SP MM MICK 1993-02-10 18:00:00 NR -33.3075 177.754 main 389 344 ________P_____ -1 -33.3075 177.754 30 997 13 184
1993034S14191 1993 10 SP MM MICK 1993-02-10 21:00:00 NR -33.9372 177.733 main 344 312 ________P_____ -1 -33.9372 177.733 30 997 12 179
1993034S14191 1993 10 SP MM MICK 1993-02-11 00:00:00 NR -34.5000 177.800 30 997 wellington main 312 287 ________O_____ -1 -34.5000 177.800 30 997 10 169
1993034S14191 1993 10 SP MM MICK 1993-02-11 03:00:00 NR -34.9152 177.968 main 294 267 ________P_____ -1 -34.9152 177.968 30 997 8 155
1993034S14191 1993 10 SP MM MICK 1993-02-11 06:00:00 NR -35.2665 178.231 main 256 223 ________P_____ -1 -35.2665 178.231 30 997 9 144
1993034S14191 1993 10 SP MM MICK 1993-02-11 09:00:00 NR -35.6096 178.579 main 224 186 ________P_____ -1 -35.6096 178.579 30 997 10 140
1993034S14191 1993 10 SP MM MICK 1993-02-11 12:00:00 NR -36.0000 179.000 30 997 wellington main 188 161 ________O_____ -1 -36.0000 179.000 30 997 11 140
1993034S14191 1993 10 SP MM MICK 1993-02-11 15:00:00 NR -36.4750 179.482 main 155 145 ________P_____ -1 -36.4750 179.482 30 997 13 141
1993034S14191 1993 10 SP MM MICK 1993-02-11 18:00:00 NR -37.0000 180.000 30 997 wellington main 145 ________O_____ -1 -37.0000 180.000 30 997 13 142

Digital Typhoon Data and Search

About IBTrACS Database

This database is a web-friendly format of International Best Track Archive for Climate Stewardship (IBTrACS), a global best track data archive curated by NOAA dating back to 1842.

Updated: 2021-12-06